This is the latest recevied weather packets stored in our database for station/object N3SBK. If no packets are shown the sender has not sent any weather packets the latest 10 day(s).
| Time | Temp. | Humidity | Pressure | Rain* | Wind** | Luminosity | Snow |
|---|---|---|---|---|---|---|---|
| 1787948371 | 24.44° C | 70% | 1011.5 hPa | 0 mm | - | 424 W/m² | - |
| 1787948070 | 23.89° C | 67% | 1011.5 hPa | 0 mm | - | 473 W/m² | - |
| 1787947764 | 24.44° C | 64% | 1011.4 hPa | 0 mm | - | 152 W/m² | - |
| 1787947463 | 25.56° C | 61% | 1011.4 hPa | 0 mm | - | 97 W/m² | - |
| 1787947163 | 26.11° C | 59% | 1011.2 hPa | 0 mm | - | 132 W/m² | - |
| 1787946862 | 26.67° C | 57% | 1011.3 hPa | 0 mm | - | 301 W/m² | - |
| 1787946560 | 25.56° C | 60% | 1011.3 hPa | 0 mm | - | 515 W/m² | - |
| 1787946256 | 26.11° C | 56% | 1011.3 hPa | 0 mm | - | 385 W/m² | - |
| 1787945955 | 26.11° C | 55% | 1011.4 hPa | 0 mm | - | 291 W/m² | - |
| 1787945651 | 26.67° C | 55% | 1011.5 hPa | 0 mm | - | 513 W/m² | - |
| 1787945350 | 26.11° C | 61% | 1011.3 hPa | 0 mm | - | 523 W/m² | - |
| 1787945046 | 26.11° C | 59% | 1011.5 hPa | 0 mm | - | 529 W/m² | - |
| 1787944743 | 25.56° C | 60% | 1011.4 hPa | 0 mm | - | 550 W/m² | - |
| 1787944439 | 25.56° C | 59% | 1011.6 hPa | 0 mm | - | 557 W/m² | - |
| 1787944135 | 25.56° C | 61% | 1011.5 hPa | 0 mm | - | 564 W/m² | - |
| 1787943829 | 25.56° C | 62% | 1011.6 hPa | 0 mm | - | 567 W/m² | - |
| 1787943524 | 24.44° C | 67% | 1011.5 hPa | 0 mm | - | 578 W/m² | - |
| 1787943220 | 23.89° C | 68% | 1011.6 hPa | 0 mm | - | 611 W/m² | - |
| 1787942919 | 25° C | 63% | 1011.6 hPa | 0 mm | - | 104 W/m² | - |
| 1787942615 | 26.11° C | 59% | 1011.6 hPa | 0 mm | - | 113 W/m² | - |
| 1787942314 | 26.11° C | 55% | 1011.7 hPa | 0 mm | - | 209 W/m² | - |
| 1787942010 | 25.56° C | 62% | 1011.6 hPa | 0 mm | - | 688 W/m² | - |
| 1787941705 | 26.67° C | 58% | 1011.6 hPa | 0 mm | - | 187 W/m² | - |
| 1787941403 | 26.11° C | 65% | 1011.7 hPa | 0 mm | - | 677 W/m² | - |
| 1787941103 | 26.67° C | 61% | 1011.8 hPa | 0 mm | - | 326 W/m² | - |
* Rain latest hour (hover to see other rain measurements)
** Current wind speed in m/s (hover to see current wind gust speed)